createdAt,value
2016-04-15T00:00:34.957Z,0
2016-04-15T00:01:34.944Z,0
2016-04-15T00:02:34.915Z,0
2016-04-15T00:03:34.902Z,0
2016-04-15T00:04:34.874Z,0
2016-04-15T00:05:34.861Z,0
2016-04-15T00:06:34.832Z,0
2016-04-15T00:07:34.804Z,0
2016-04-15T00:08:34.853Z,0
2016-04-15T00:09:34.762Z,0
2016-04-15T00:10:34.750Z,0
2016-04-15T00:11:34.721Z,0
2016-04-15T00:12:34.709Z,0
2016-04-15T00:13:34.679Z,0
2016-04-15T00:14:34.807Z,0
2016-04-15T00:15:34.638Z,0
2016-04-15T00:16:34.609Z,0
2016-04-15T00:17:34.581Z,0
2016-04-15T00:18:34.567Z,0
2016-04-15T00:19:34.555Z,0
2016-04-15T00:20:34.526Z,0
2016-04-15T00:21:34.497Z,0
2016-04-15T00:22:34.500Z,0
2016-04-15T00:23:34.455Z,0
2016-04-15T00:24:34.443Z,0
2016-04-15T00:25:34.415Z,0
2016-04-15T00:26:34.418Z,0
2016-04-15T00:27:34.374Z,0
2016-04-15T00:28:34.344Z,0
2016-04-15T00:29:34.394Z,0
2016-04-15T00:30:34.318Z,0
2016-04-15T00:31:34.149Z,0
2016-04-15T00:32:34.278Z,0
2016-04-15T00:33:34.234Z,0
2016-04-15T00:34:34.221Z,0
2016-04-15T00:35:34.232Z,0
2016-04-15T00:36:34.171Z,0
2016-04-15T00:37:34.158Z,0
2016-04-15T00:38:34.129Z,0
2016-04-15T00:39:34.101Z,0
2016-04-15T00:40:34.104Z,0
2016-04-15T00:41:34.075Z,0
2016-04-15T00:42:34.046Z,0
2016-04-15T00:43:34.017Z,0
2016-04-15T00:44:33.895Z,0
2016-04-15T00:45:33.992Z,0
2016-04-15T00:46:33.964Z,0
2016-04-15T00:47:33.935Z,0
2016-04-15T00:48:33.751Z,0
2016-04-15T00:49:33.894Z,0
2016-04-15T00:50:33.881Z,0
2016-04-15T00:51:33.853Z,0
2016-04-15T00:52:33.823Z,0
2016-04-15T00:53:33.811Z,0
2016-04-15T00:54:33.797Z,0
2016-04-15T00:55:33.785Z,0
2016-04-15T00:56:33.740Z,0
2016-04-15T00:57:33.727Z,0
2016-04-15T00:58:33.543Z,0
2016-04-15T00:59:33.951Z,0
2016-04-15T01:00:33.641Z,0
2016-04-15T01:01:33.629Z,0
2016-04-15T01:02:33.616Z,0
2016-04-15T01:03:33.588Z,0
2016-04-15T01:04:33.574Z,0
2016-04-15T01:05:33.562Z,0
2016-04-15T01:06:33.532Z,0
2016-04-15T01:07:33.488Z,0
2016-04-15T01:08:33.491Z,0
2016-04-15T01:09:33.463Z,0
2016-04-15T01:10:33.434Z,0
2016-04-15T01:11:33.406Z,0
2016-04-15T01:12:33.392Z,0
2016-04-15T01:13:33.364Z,0
2016-04-15T01:14:33.242Z,0
2016-04-15T01:15:33.322Z,0
2016-04-15T01:16:33.326Z,0
2016-04-15T01:17:33.281Z,0
2016-04-15T01:18:33.268Z,0
2016-04-15T01:19:33.240Z,0
2016-04-15T01:20:33.227Z,0
2016-04-15T01:21:33.198Z,0
2016-04-15T01:22:33.169Z,0
2016-04-15T01:23:33.141Z,0
2016-04-15T01:24:33.128Z,0
2016-04-15T01:25:33.099Z,0
2016-04-15T01:26:33.087Z,0
2016-04-15T01:27:33.074Z,0
2016-04-15T01:28:33.061Z,0
2016-04-15T01:29:33.033Z,0
2016-04-15T01:30:33.004Z,0
2016-04-15T01:31:32.975Z,0
2016-04-15T01:32:32.962Z,0
2016-04-15T01:33:32.949Z,0
2016-04-15T01:34:32.936Z,0
2016-04-15T01:35:32.893Z,0
2016-04-15T01:36:32.863Z,0
2016-04-15T01:37:32.851Z,0
2016-04-15T01:38:32.821Z,0
2016-04-15T01:39:32.809Z,0
2016-04-15T01:40:32.781Z,0
2016-04-15T01:41:32.767Z,0
2016-04-15T01:42:32.740Z,0
2016-04-15T01:43:32.726Z,0
2016-04-15T01:44:32.698Z,0
2016-04-15T01:45:32.670Z,0
2016-04-15T01:46:32.656Z,0
2016-04-15T01:47:32.643Z,0
2016-04-15T01:48:32.614Z,0
2016-04-15T01:49:32.586Z,0
2016-04-15T01:50:32.573Z,0
2016-04-15T01:51:32.544Z,0
2016-04-15T01:52:32.516Z,0
2016-04-15T01:53:32.518Z,0
2016-04-15T01:54:32.489Z,0
2016-04-15T01:55:32.461Z,0
2016-04-15T01:56:32.432Z,0
2016-04-15T01:57:32.405Z,0
2016-04-15T01:58:32.391Z,0
2016-04-15T01:59:32.378Z,0
2016-04-15T02:00:32.569Z,0
2016-04-15T02:01:32.322Z,0
2016-04-15T02:02:32.308Z,0
2016-04-15T02:03:32.280Z,0
2016-04-15T02:04:32.266Z,0
2016-04-15T02:05:32.238Z,0
2016-04-15T02:06:32.226Z,0
2016-04-15T02:07:32.213Z,0
2016-04-15T02:08:32.185Z,0
2016-04-15T02:09:32.155Z,0
2016-04-15T02:10:32.143Z,0
2016-04-15T02:11:32.115Z,0
2016-04-15T02:12:32.085Z,0
2016-04-15T02:13:32.057Z,0
2016-04-15T02:14:32.059Z,0
2016-04-15T02:15:32.031Z,0
2016-04-15T02:16:32.018Z,0
2016-04-15T02:17:31.989Z,0
2016-04-15T02:18:31.976Z,0
2016-04-15T02:19:31.931Z,0
2016-04-15T02:20:31.919Z,0
2016-04-15T02:21:31.891Z,0
2016-04-15T02:22:31.877Z,0
2016-04-15T02:23:31.881Z,0
2016-04-15T02:24:31.820Z,0
2016-04-15T02:25:31.808Z,0
2016-04-15T02:26:31.780Z,0
2016-04-15T02:27:31.766Z,0
2016-04-15T02:28:31.738Z,0
2016-04-15T02:29:31.725Z,0
2016-04-15T02:30:31.696Z,0
2016-04-15T02:31:31.668Z,0
2016-04-15T02:32:31.655Z,0
2016-04-15T02:33:31.626Z,0
2016-04-15T02:34:31.597Z,0
2016-04-15T02:35:31.584Z,0
2016-04-15T02:36:31.571Z,0
2016-04-15T02:37:31.527Z,0
2016-04-15T02:38:31.530Z,0
2016-04-15T02:39:31.486Z,0
2016-04-15T02:40:31.473Z,0
2016-04-15T02:41:31.445Z,0
2016-04-15T02:42:31.432Z,0
2016-04-15T02:43:31.403Z,0
2016-04-15T02:44:31.374Z,0
2016-04-15T02:45:31.361Z,0
2016-04-15T02:46:31.333Z,0
2016-04-15T02:47:31.304Z,0
2016-04-15T02:48:31.292Z,0
2016-04-15T02:49:31.263Z,0
2016-04-15T02:50:31.251Z,0
2016-04-15T02:51:31.222Z,0
2016-04-15T02:52:31.193Z,0
2016-04-15T02:53:31.165Z,0
2016-04-15T02:54:31.151Z,0
2016-04-15T02:55:31.123Z,0
2016-04-15T02:56:31.094Z,0
2016-04-15T02:57:31.066Z,0
2016-04-15T02:58:31.053Z,0
2016-04-15T02:59:31.024Z,0
2016-04-15T03:00:30.996Z,0
2016-04-15T03:01:30.999Z,0
2016-04-15T03:02:30.955Z,0
2016-04-15T03:03:30.957Z,0
2016-04-15T03:04:30.928Z,0
2016-04-15T03:05:30.900Z,0
2016-04-15T03:06:30.855Z,0
2016-04-15T03:07:30.858Z,0
2016-04-15T03:08:30.861Z,0
2016-04-15T03:09:30.816Z,0
2016-04-15T03:10:30.788Z,0
2016-04-15T03:11:30.775Z,0
2016-04-15T03:12:30.715Z,0
2016-04-15T03:13:30.718Z,0
2016-04-15T03:14:30.689Z,0
2016-04-15T03:15:30.661Z,0
2016-04-15T03:16:30.664Z,0
2016-04-15T03:17:30.603Z,0
2016-04-15T03:18:30.590Z,0
2016-04-15T03:19:30.578Z,0
2016-04-15T03:20:30.550Z,0
2016-04-15T03:21:30.521Z,0
2016-04-15T03:22:30.492Z,0
2016-04-15T03:23:30.479Z,0
2016-04-15T03:24:29.717Z,0
2016-04-15T03:25:30.438Z,0
2016-04-15T03:26:30.394Z,0
2016-04-15T03:27:30.396Z,0
2016-04-15T03:28:30.352Z,0
2016-04-15T03:29:30.339Z,0
2016-04-15T03:30:30.311Z,0
2016-04-15T03:31:30.298Z,0
2016-04-15T03:32:30.269Z,0
2016-04-15T03:33:30.241Z,0
2016-04-15T03:34:30.244Z,0
2016-04-15T03:35:30.215Z,0
2016-04-15T03:36:30.186Z,0
2016-04-15T03:37:30.157Z,0
2016-04-15T03:38:30.129Z,0
2016-04-15T03:39:30.101Z,0
2016-04-15T03:40:30.072Z,0
2016-04-15T03:41:30.074Z,0
2016-04-15T03:42:30.030Z,0
2016-04-15T03:43:30.002Z,0
2016-04-15T03:44:29.989Z,0
2016-04-15T03:45:30.242Z,0
2016-04-15T03:46:29.948Z,0
2016-04-15T03:47:29.919Z,0
2016-04-15T03:48:29.890Z,0
2016-04-15T03:49:29.878Z,0
2016-04-15T03:50:29.848Z,0
2016-04-15T03:51:29.836Z,0
2016-04-15T03:52:29.792Z,0
2016-04-15T03:53:29.778Z,0
2016-04-15T03:54:29.750Z,0
2016-04-15T03:55:29.737Z,0
2016-04-15T03:56:29.708Z,0
2016-04-15T03:57:29.695Z,0
2016-04-15T03:58:29.651Z,0
2016-04-15T03:59:29.638Z,0
2016-04-15T04:00:29.719Z,0
2016-04-15T04:01:29.597Z,0
2016-04-15T04:02:29.569Z,0
2016-04-15T04:03:29.540Z,0
2016-04-15T04:04:29.527Z,0
2016-04-15T04:05:29.514Z,0
2016-04-15T04:06:29.485Z,0
2016-04-15T04:07:29.441Z,0
2016-04-15T04:08:29.429Z,0
2016-04-15T04:09:29.415Z,0
2016-04-15T04:10:29.387Z,0
2016-04-15T04:11:29.358Z,0
2016-04-15T04:12:29.330Z,0
2016-04-15T04:13:29.317Z,0
2016-04-15T04:14:29.288Z,0
2016-04-15T04:15:29.213Z,0
2016-04-15T04:16:29.246Z,0
2016-04-15T04:17:29.218Z,0
2016-04-15T04:18:29.206Z,0
2016-04-15T04:19:29.176Z,0
2016-04-15T04:20:29.148Z,0
2016-04-15T04:21:29.120Z,0
2016-04-15T04:22:29.106Z,0
2016-04-15T04:23:29.109Z,0
2016-04-15T04:24:29.064Z,0
2016-04-15T04:25:29.036Z,0
2016-04-15T04:26:29.023Z,5
2016-04-15T04:27:28.995Z,5
2016-04-15T04:28:28.983Z,5
2016-04-15T04:29:28.939Z,5
2016-04-15T04:30:29.019Z,5
2016-04-15T04:31:28.897Z,5
2016-04-15T04:32:28.869Z,5
2016-04-15T04:33:28.855Z,5
2016-04-15T04:34:28.827Z,5
2016-04-15T04:35:28.813Z,5
2016-04-15T04:36:28.785Z,5
2016-04-15T04:37:28.757Z,5
2016-04-15T04:38:28.743Z,5
2016-04-15T04:39:28.715Z,5
2016-04-15T04:40:28.685Z,10
2016-04-15T04:41:28.673Z,10
2016-04-15T04:42:28.629Z,10
2016-04-15T04:43:28.679Z,5
2016-04-15T04:44:28.604Z,5
2016-04-15T04:45:28.621Z,5
2016-04-15T04:46:28.812Z,10
2016-04-15T04:47:28.518Z,15
2016-04-15T04:48:28.504Z,10
2016-04-15T04:49:28.476Z,10
2016-04-15T04:50:28.462Z,10
2016-04-15T04:51:27.564Z,15
2016-04-15T04:52:28.313Z,20
2016-04-15T04:53:28.579Z,15
2016-04-15T04:54:29.253Z,15
2016-04-15T04:55:28.261Z,15
2016-04-15T04:56:28.311Z,25
2016-04-15T04:57:28.281Z,30
2016-04-15T04:58:28.284Z,35
2016-04-15T04:59:28.256Z,30
2016-04-15T05:00:28.228Z,25
2016-04-15T05:01:28.214Z,20
2016-04-15T05:02:28.202Z,20
2016-04-15T05:03:28.142Z,25
2016-04-15T05:04:28.128Z,25
2016-04-15T05:05:28.116Z,30
2016-04-15T05:06:28.087Z,35
2016-04-15T05:07:28.074Z,35
2016-04-15T05:08:28.030Z,35
2016-04-15T05:09:28.032Z,35
2016-04-15T05:10:28.005Z,40
2016-04-15T05:11:27.976Z,40
2016-04-15T05:12:27.947Z,40
2016-04-15T05:13:27.935Z,40
2016-04-15T05:14:27.890Z,40
2016-04-15T05:15:27.877Z,40
2016-04-15T05:16:27.849Z,40
2016-04-15T05:17:27.851Z,45
2016-04-15T05:18:27.807Z,60
2016-04-15T05:19:27.887Z,70
2016-04-15T05:20:27.765Z,80
2016-04-15T05:21:27.737Z,90
2016-04-15T05:22:27.723Z,110
2016-04-15T05:23:27.695Z,125
2016-04-15T05:24:27.682Z,135
2016-04-15T05:25:27.653Z,140
2016-04-15T05:26:27.641Z,135
2016-04-15T05:27:27.597Z,130
2016-04-15T05:28:27.584Z,130
2016-04-15T05:29:27.556Z,130
2016-04-15T05:30:27.527Z,125
2016-04-15T05:31:27.498Z,125
2016-04-15T05:32:27.485Z,130
2016-04-15T05:33:27.488Z,130
2016-04-15T05:34:27.444Z,135
2016-04-15T05:35:27.430Z,145
2016-04-15T05:36:27.403Z,155
2016-04-15T05:37:27.374Z,160
2016-04-15T05:38:27.361Z,160
2016-04-15T05:39:27.333Z,160
2016-04-15T05:40:27.304Z,160
2016-04-15T05:41:27.291Z,155
2016-04-15T05:42:27.262Z,155
2016-04-15T05:43:27.265Z,150
2016-04-15T05:44:27.221Z,150
2016-04-15T05:45:27.192Z,165
2016-04-15T05:46:27.163Z,165
2016-04-15T05:47:27.151Z,150
2016-04-15T05:48:27.121Z,130
2016-04-15T05:49:27.093Z,105
2016-04-15T05:50:27.081Z,90
2016-04-15T05:51:27.051Z,75
2016-04-15T05:52:27.055Z,65
2016-04-15T05:53:26.870Z,65
2016-04-15T05:54:26.998Z,75
2016-04-15T05:55:26.970Z,85
2016-04-15T05:56:26.940Z,95
2016-04-15T05:57:26.928Z,100
2016-04-15T05:58:26.898Z,100
2016-04-15T05:59:26.901Z,90
2016-04-15T06:00:26.873Z,90
2016-04-15T06:01:26.844Z,95
2016-04-15T06:02:26.831Z,85
2016-04-15T06:03:26.786Z,80
2016-04-15T06:04:26.758Z,70
2016-04-15T06:05:26.746Z,70
2016-04-15T06:06:26.716Z,80
2016-04-15T06:07:26.704Z,85
2016-04-15T06:08:26.691Z,75
2016-04-15T06:09:26.694Z,85
2016-04-15T06:10:26.635Z,85
2016-04-15T06:11:26.622Z,85
2016-04-15T06:12:26.608Z,85
2016-04-15T06:13:26.564Z,100
2016-04-15T06:14:26.535Z,115
2016-04-15T06:15:26.523Z,135
2016-04-15T06:16:26.510Z,155
2016-04-15T06:17:26.481Z,155
2016-04-15T06:18:26.452Z,160
2016-04-15T06:19:26.440Z,170
2016-04-15T06:20:26.412Z,165
2016-04-15T06:21:26.404Z,160
2016-04-15T06:22:26.361Z,180
2016-04-15T06:23:26.348Z,230
2016-04-15T06:24:26.320Z,270
2016-04-15T06:25:26.306Z,275
2016-04-15T06:26:26.122Z,255
2016-04-15T06:27:26.254Z,240
2016-04-15T06:28:26.241Z,250
2016-04-15T06:29:26.212Z,260
2016-04-15T06:30:26.184Z,250
2016-04-15T06:31:26.155Z,260
2016-04-15T06:32:26.158Z,260
2016-04-15T06:33:26.114Z,235
2016-04-15T06:34:26.102Z,220
2016-04-15T06:35:26.073Z,230
2016-04-15T06:36:26.060Z,235
2016-04-15T06:37:26.047Z,240
2016-04-15T06:38:26.002Z,240
2016-04-15T06:39:25.990Z,250
2016-04-15T06:40:25.992Z,285
2016-04-15T06:41:25.948Z,295
2016-04-15T06:42:25.935Z,300
2016-04-15T06:43:25.906Z,315
2016-04-15T06:44:25.878Z,320
2016-04-15T06:45:25.849Z,320
2016-04-15T06:46:25.883Z,310
2016-04-15T06:47:26.058Z,325
2016-04-15T06:48:25.794Z,355
2016-04-15T06:49:25.782Z,335
2016-04-15T06:50:25.753Z,325
2016-04-15T06:51:25.756Z,295
2016-04-15T06:52:25.712Z,295
2016-04-15T06:53:25.683Z,270
2016-04-15T06:54:25.733Z,255
2016-04-15T06:55:25.641Z,235
2016-04-15T06:56:25.613Z,180
2016-04-15T06:57:25.600Z,185
2016-04-15T06:58:25.588Z,185
2016-04-15T06:59:25.559Z,170
2016-04-15T07:00:25.531Z,175
2016-04-15T07:01:25.518Z,175
2016-04-15T07:02:25.489Z,185
2016-04-15T07:03:25.476Z,185
2016-04-15T07:04:25.447Z,180
2016-04-15T07:05:25.435Z,180
2016-04-15T07:06:25.406Z,195
2016-04-15T07:07:25.393Z,200
2016-04-15T07:08:25.365Z,170
2016-04-15T07:09:25.398Z,205
2016-04-15T07:10:25.682Z,280
2016-04-15T07:11:25.309Z,290
2016-04-15T07:12:25.281Z,305
2016-04-15T07:13:25.268Z,305
2016-04-15T07:14:25.240Z,335
2016-04-15T07:15:25.212Z,355
2016-04-15T07:16:25.198Z,375
2016-04-15T07:17:25.014Z,365
2016-04-15T07:18:25.157Z,370
2016-04-15T07:19:25.129Z,395
2016-04-15T07:20:25.194Z,405
2016-04-15T07:21:25.091Z,425
2016-04-15T07:22:25.219Z,435
2016-04-15T07:23:24.941Z,435
2016-04-15T07:24:25.052Z,420
2016-04-15T07:25:25.008Z,440
2016-04-15T07:26:25.073Z,445
2016-04-15T07:27:24.967Z,465
2016-04-15T07:28:24.944Z,400
2016-04-15T07:29:24.931Z,365
2016-04-15T07:30:24.918Z,385
2016-04-15T07:31:24.765Z,390
2016-04-15T07:32:24.860Z,395
2016-04-15T07:33:24.848Z,415
2016-04-15T07:34:24.834Z,405
2016-04-15T07:35:24.790Z,385
2016-04-15T07:36:24.778Z,360
2016-04-15T07:37:24.764Z,330
2016-04-15T07:38:24.736Z,335
2016-04-15T07:39:24.723Z,350
2016-04-15T07:40:24.694Z,380
2016-04-15T07:41:24.667Z,415
2016-04-15T07:42:24.653Z,465
2016-04-15T07:43:24.656Z,475
2016-04-15T07:44:24.612Z,495
2016-04-15T07:45:24.599Z,525
2016-04-15T07:46:24.570Z,540
2016-04-15T07:47:24.557Z,480
2016-04-15T07:48:24.544Z,450
2016-04-15T07:49:24.516Z,420
2016-04-15T07:50:24.487Z,360
2016-04-15T07:51:24.458Z,420
2016-04-15T07:52:24.445Z,475
2016-04-15T07:53:24.432Z,505
2016-04-15T07:54:24.419Z,480
2016-04-15T07:55:24.390Z,370
2016-04-15T07:56:24.363Z,320
2016-04-15T07:57:24.349Z,360
2016-04-15T07:58:24.337Z,370
2016-04-15T07:59:24.323Z,365
2016-04-15T08:00:24.279Z,345
2016-04-15T08:01:24.267Z,285
2016-04-15T08:02:24.237Z,335
2016-04-15T08:03:24.225Z,345
2016-04-15T08:04:24.259Z,355
2016-04-15T08:05:24.184Z,350
2016-04-15T08:06:24.156Z,405
2016-04-15T08:07:24.159Z,430
2016-04-15T08:08:24.114Z,440
2016-04-15T08:09:24.101Z,480
2016-04-15T08:10:24.400Z,460
2016-04-15T08:11:24.122Z,515
2016-04-15T08:12:24.031Z,520
2016-04-15T08:13:23.877Z,540
2016-04-15T08:14:24.005Z,605
2016-04-15T08:15:23.975Z,650
2016-04-15T08:16:23.964Z,700
2016-04-15T08:17:23.935Z,645
2016-04-15T08:18:23.938Z,530
2016-04-15T08:19:23.909Z,450
2016-04-15T08:20:23.724Z,480
2016-04-15T08:21:23.858Z,615
2016-04-15T08:22:23.829Z,755
2016-04-15T08:23:23.863Z,735
2016-04-15T08:24:23.803Z,760
2016-04-15T08:25:23.789Z,770
2016-04-15T08:26:23.808Z,770
2016-04-15T08:27:23.733Z,865
2016-04-15T08:28:23.719Z,875
2016-04-15T08:29:23.692Z,880
2016-04-15T08:30:23.694Z,875
2016-04-15T08:31:24.030Z,720
2016-04-15T08:32:23.685Z,705
2016-04-15T08:33:23.745Z,615
2016-04-15T08:34:23.743Z,780
2016-04-15T08:35:23.774Z,835
2016-04-15T08:36:23.784Z,725
2016-04-15T08:37:23.787Z,720
2016-04-15T08:38:23.774Z,580
2016-04-15T08:39:23.776Z,570
2016-04-15T08:40:23.778Z,670
2016-04-15T08:41:23.842Z,790
2016-04-15T08:42:23.756Z,875
2016-04-15T08:43:23.749Z,895
2016-04-15T08:44:23.727Z,940
2016-04-15T08:45:23.719Z,1080
2016-04-15T08:46:23.976Z,1250
2016-04-15T08:47:23.731Z,1235
2016-04-15T08:48:23.688Z,1125
2016-04-15T08:49:23.646Z,1010
2016-04-15T08:50:23.635Z,930
2016-04-15T08:51:23.624Z,925
2016-04-15T08:52:23.597Z,950
2016-04-15T08:53:23.568Z,1105
2016-04-15T08:54:23.572Z,1190
2016-04-15T08:55:23.544Z,1115
2016-04-15T08:56:23.516Z,1130
2016-04-15T08:57:23.503Z,1105
2016-04-15T08:58:23.491Z,1040
2016-04-15T08:59:23.479Z,995
2016-04-15T09:00:23.465Z,970
2016-04-15T09:01:23.578Z,975
2016-04-15T09:02:23.425Z,975
2016-04-15T09:03:23.428Z,980
2016-04-15T09:04:23.384Z,1045
2016-04-15T09:05:23.371Z,1080
2016-04-15T09:06:23.357Z,1060
2016-04-15T09:07:23.345Z,1040
2016-04-15T09:08:23.316Z,1040
2016-04-15T09:09:23.303Z,1050
2016-04-15T09:10:23.290Z,1070
2016-04-15T09:11:23.261Z,1090
2016-04-15T09:12:23.248Z,1130
2016-04-15T09:13:23.079Z,1245
2016-04-15T09:14:23.207Z,1320
2016-04-15T09:15:23.210Z,1260
2016-04-15T09:16:23.244Z,1140
2016-04-15T09:17:23.169Z,1060
2016-04-15T09:18:23.155Z,1000
2016-04-15T09:19:23.127Z,980
2016-04-15T09:20:23.113Z,990
2016-04-15T09:21:23.101Z,1010
2016-04-15T09:22:23.088Z,1055
2016-04-15T09:23:23.060Z,1055
2016-04-15T09:24:23.046Z,1015
2016-04-15T09:25:23.034Z,940
2016-04-15T09:26:23.021Z,965
2016-04-15T09:27:22.993Z,985
2016-04-15T09:28:22.979Z,970
2016-04-15T09:29:22.982Z,1040
2016-04-15T09:30:22.954Z,1090
2016-04-15T09:31:22.956Z,1175
2016-04-15T09:32:22.912Z,1215
2016-04-15T09:33:22.898Z,1225
2016-04-15T09:34:22.870Z,1190
2016-04-15T09:35:22.889Z,1110
2016-04-15T09:36:22.845Z,1305
2016-04-15T09:37:22.848Z,1290
2016-04-15T09:38:22.818Z,1275
2016-04-15T09:39:22.806Z,1285
2016-04-15T09:40:22.777Z,1235
2016-04-15T09:41:22.764Z,1350
2016-04-15T09:42:22.923Z,1365
2016-04-15T09:43:22.738Z,1215
2016-04-15T09:44:22.725Z,1130
2016-04-15T09:45:22.696Z,1095
2016-04-15T09:46:22.699Z,1040
2016-04-15T09:47:22.671Z,1010
2016-04-15T09:48:22.658Z,1090
2016-04-15T09:49:22.630Z,1140
2016-04-15T09:50:22.616Z,1165
2016-04-15T09:51:22.603Z,1260
2016-04-15T09:52:22.590Z,1315
2016-04-15T09:53:22.562Z,1105
2016-04-15T09:54:22.549Z,1100
2016-04-15T09:55:22.552Z,1100
2016-04-15T09:56:22.508Z,1155
2016-04-15T09:57:22.495Z,1325
2016-04-15T09:58:22.497Z,1395
2016-04-15T09:59:22.469Z,1285
2016-04-15T10:00:22.456Z,1475
2016-04-15T10:01:22.443Z,1470
2016-04-15T10:02:22.429Z,1220
2016-04-15T10:03:22.417Z,1040
2016-04-15T10:04:22.404Z,825
2016-04-15T10:05:22.375Z,970
2016-04-15T10:06:22.362Z,1090
2016-04-15T10:07:22.350Z,1050
2016-04-15T10:08:22.384Z,1175
2016-04-15T10:09:22.324Z,1290
2016-04-15T10:10:22.295Z,1290
2016-04-15T10:11:22.282Z,1395
2016-04-15T10:12:22.269Z,1450
2016-04-15T10:13:22.272Z,1460
2016-04-15T10:14:22.244Z,1455
2016-04-15T10:15:22.230Z,1335
2016-04-15T10:16:22.202Z,1420
2016-04-15T10:17:22.219Z,1530
2016-04-15T10:18:22.175Z,1515
2016-04-15T10:19:22.163Z,1460
2016-04-15T10:20:22.150Z,1415
2016-04-15T10:21:22.138Z,1255
2016-04-15T10:22:22.124Z,1210
2016-04-15T10:23:22.111Z,1215
2016-04-15T10:24:22.098Z,1205
2016-04-15T10:25:22.085Z,1080
2016-04-15T10:26:22.072Z,860
2016-04-15T10:27:22.075Z,690
2016-04-15T10:28:22.032Z,525
2016-04-15T10:29:22.019Z,505
2016-04-15T10:30:22.005Z,500
2016-04-15T10:31:22.696Z,455
2016-04-15T10:32:21.979Z,355
2016-04-15T10:33:21.966Z,440
2016-04-15T10:34:21.953Z,490
2016-04-15T10:35:21.971Z,445
2016-04-15T10:36:21.928Z,410
2016-04-15T10:37:21.898Z,380
2016-04-15T10:38:21.887Z,360
2016-04-15T10:39:21.873Z,375
2016-04-15T10:40:21.845Z,440
2016-04-15T10:41:21.831Z,540
2016-04-15T10:42:21.819Z,675
2016-04-15T10:43:21.806Z,775
2016-04-15T10:44:21.777Z,870
2016-04-15T10:45:21.764Z,870
2016-04-15T10:46:21.766Z,740
2016-04-15T10:47:21.738Z,660
2016-04-15T10:48:21.741Z,695
2016-04-15T10:49:21.712Z,710
2016-04-15T10:50:21.684Z,655
2016-04-15T10:51:21.655Z,565
2016-04-15T10:52:21.642Z,460
2016-04-15T10:53:21.644Z,590
2016-04-15T10:54:21.616Z,590
2016-04-15T10:55:21.588Z,775
2016-04-15T10:56:21.575Z,845
2016-04-15T10:57:21.563Z,700
2016-04-15T10:58:21.534Z,705
2016-04-15T10:59:21.365Z,835
2016-04-15T11:00:21.508Z,895
2016-04-15T11:01:21.496Z,950
2016-04-15T11:02:21.482Z,1025
2016-04-15T11:03:21.454Z,1090
2016-04-15T11:04:21.440Z,950
2016-04-15T11:05:21.427Z,910
2016-04-15T11:06:21.414Z,1225
2016-04-15T11:07:21.401Z,1320
2016-04-15T11:08:21.373Z,1320
2016-04-15T11:09:21.360Z,1265
2016-04-15T11:10:21.332Z,1250
2016-04-15T11:11:21.318Z,1140
2016-04-15T11:12:21.321Z,1120
2016-04-15T11:13:21.293Z,1165
2016-04-15T11:14:21.280Z,1070
2016-04-15T11:15:21.251Z,1165
2016-04-15T11:16:21.238Z,1235
2016-04-15T11:17:21.241Z,1285
2016-04-15T11:18:21.258Z,1285
2016-04-15T11:19:21.183Z,1090
2016-04-15T11:20:21.186Z,975
2016-04-15T11:21:21.158Z,785
2016-04-15T11:22:21.145Z,950
2016-04-15T11:23:21.132Z,1125
2016-04-15T11:24:21.119Z,1110
2016-04-15T11:25:21.105Z,1080
2016-04-15T11:26:21.077Z,1200
2016-04-15T11:27:21.065Z,1290
2016-04-15T11:28:21.068Z,1150
2016-04-15T11:29:21.039Z,1055
2016-04-15T11:30:21.042Z,1100
2016-04-15T11:31:21.013Z,1160
2016-04-15T11:32:20.844Z,1250
2016-04-15T11:33:20.987Z,1220
2016-04-15T11:34:20.959Z,1105
2016-04-15T11:35:20.946Z,1065
2016-04-15T11:36:20.932Z,1020
2016-04-15T11:37:22.920Z,1025
2016-04-15T11:38:20.906Z,1030
2016-04-15T11:39:20.879Z,950
2016-04-15T11:40:22.100Z,920
2016-04-15T11:41:20.853Z,900
2016-04-15T11:42:20.855Z,720
2016-04-15T11:43:20.826Z,740
2016-04-15T11:44:20.814Z,870
2016-04-15T11:45:20.784Z,945
2016-04-15T11:46:20.803Z,970
2016-04-15T11:47:20.759Z,900
2016-04-15T11:48:20.746Z,825
2016-04-15T11:49:20.733Z,755
2016-04-15T11:50:20.705Z,800
2016-04-15T11:51:20.707Z,775
2016-04-15T11:52:20.725Z,880
2016-04-15T11:53:20.666Z,950
2016-04-15T11:54:20.652Z,875
2016-04-15T11:55:20.655Z,1165
2016-04-15T11:56:20.611Z,1080
2016-04-15T11:57:20.614Z,875
2016-04-15T11:58:20.586Z,915
2016-04-15T11:59:20.604Z,865
2016-04-15T12:00:20.544Z,950
2016-04-15T12:01:20.546Z,990
2016-04-15T12:02:20.565Z,990
2016-04-15T12:03:20.504Z,985
2016-04-15T12:04:20.492Z,990
2016-04-15T12:05:20.479Z,950
2016-04-15T12:06:20.513Z,915
2016-04-15T12:07:21.109Z,870
2016-04-15T12:08:20.316Z,915
2016-04-15T12:09:20.193Z,985
2016-04-15T12:10:20.401Z,1015
2016-04-15T12:11:20.389Z,1085
2016-04-15T12:12:20.375Z,1180
2016-04-15T12:13:20.362Z,1240
2016-04-15T12:14:20.349Z,1185
2016-04-15T12:15:20.336Z,1050
2016-04-15T12:16:20.198Z,950
2016-04-15T12:17:20.577Z,950
2016-04-15T12:18:20.157Z,935
2016-04-15T12:19:20.269Z,950
2016-04-15T12:20:20.241Z,915
2016-04-15T12:21:20.243Z,965
2016-04-15T12:22:20.261Z,990
2016-04-15T12:23:20.217Z,1060
2016-04-15T12:24:20.188Z,980
2016-04-15T12:25:20.191Z,935
2016-04-15T12:26:20.172Z,925
2016-04-15T12:27:20.206Z,970
2016-04-15T12:28:20.131Z,1015
2016-04-15T12:29:19.978Z,1050
2016-04-15T12:30:20.106Z,1035
2016-04-15T12:31:20.092Z,1005
2016-04-15T12:32:20.361Z,1015
2016-04-15T12:33:20.050Z,1030
2016-04-15T12:34:20.053Z,1040
2016-04-15T12:35:20.025Z,1100
2016-04-15T12:36:20.012Z,1225
2016-04-15T12:37:20.000Z,1325
2016-04-15T12:38:20.002Z,1260
2016-04-15T12:39:19.989Z,1220
2016-04-15T12:40:19.960Z,1290
2016-04-15T12:41:19.932Z,1225
2016-04-15T12:42:19.919Z,1210
2016-04-15T12:43:19.905Z,1110
2016-04-15T12:44:19.893Z,1020
2016-04-15T12:45:19.879Z,830
2016-04-15T12:46:19.867Z,705
2016-04-15T12:47:20.104Z,620
2016-04-15T12:48:19.997Z,640
2016-04-15T12:49:19.829Z,725
2016-04-15T12:50:19.815Z,855
2016-04-15T12:51:19.787Z,970
2016-04-15T12:52:19.773Z,1070
2016-04-15T12:53:19.760Z,1125
2016-04-15T12:54:19.762Z,1220
2016-04-15T12:55:19.734Z,1215
2016-04-15T12:56:19.753Z,1090
2016-04-15T12:57:19.725Z,925
2016-04-15T12:58:19.696Z,890
2016-04-15T12:59:19.683Z,875
2016-04-15T13:00:18.936Z,865
2016-04-15T13:01:19.656Z,805
2016-04-15T13:02:19.753Z,770
2016-04-15T13:03:19.631Z,875
2016-04-15T13:04:19.603Z,945
2016-04-15T13:05:19.590Z,1075
2016-04-15T13:06:19.437Z,1160
2016-04-15T13:07:19.564Z,1150
2016-04-15T13:08:19.645Z,1155
2016-04-15T13:09:19.538Z,1145
2016-04-15T13:10:19.525Z,1260
2016-04-15T13:11:19.355Z,1270
2016-04-15T13:12:20.061Z,1130
2016-04-15T13:13:19.486Z,925
2016-04-15T13:14:19.474Z,885
2016-04-15T13:15:19.461Z,975
2016-04-15T13:16:19.447Z,1035
2016-04-15T13:17:19.419Z,1000
2016-04-15T13:18:19.411Z,945
2016-04-15T13:19:19.398Z,955
2016-04-15T13:20:19.385Z,935
2016-04-15T13:21:19.387Z,1115
2016-04-15T13:22:19.343Z,1175
2016-04-15T13:23:19.346Z,1060
2016-04-15T13:24:19.318Z,755
2016-04-15T13:25:19.304Z,685
2016-04-15T13:26:19.307Z,695
2016-04-15T13:27:19.404Z,775
2016-04-15T13:28:19.266Z,870
2016-04-15T13:29:19.253Z,715
2016-04-15T13:30:19.224Z,650
2016-04-15T13:31:19.227Z,715
2016-04-15T13:32:19.214Z,880
2016-04-15T13:33:19.201Z,830
2016-04-15T13:34:19.173Z,725
2016-04-15T13:35:19.175Z,665
2016-04-15T13:36:19.147Z,640
2016-04-15T13:37:19.134Z,655
2016-04-15T13:38:19.121Z,780
2016-04-15T13:39:19.108Z,770
2016-04-15T13:40:19.079Z,700
2016-04-15T13:41:19.097Z,650
2016-04-15T13:42:19.068Z,590
2016-04-15T13:43:19.056Z,580
2016-04-15T13:44:19.027Z,585
2016-04-15T13:45:19.015Z,575
2016-04-15T13:46:19.002Z,570
2016-04-15T13:47:18.974Z,565
2016-04-15T13:48:18.976Z,560
2016-04-15T13:49:18.963Z,560
2016-04-15T13:50:18.950Z,560
2016-04-15T13:51:18.922Z,555
2016-04-15T13:52:18.909Z,565
2016-04-15T13:53:18.896Z,605
2016-04-15T13:54:18.867Z,570
2016-04-15T13:55:18.870Z,610
2016-04-15T13:56:18.842Z,610
2016-04-15T13:57:18.844Z,650
2016-04-15T13:58:18.815Z,685
2016-04-15T13:59:18.802Z,640
2016-04-15T14:00:18.789Z,685
2016-04-15T14:01:18.792Z,685
2016-04-15T14:02:18.748Z,670